createdAt,value
2023-08-24T00:01:04.319Z,19.58
2023-08-24T00:03:57.231Z,19.58
2023-08-24T00:06:48.534Z,19.53
2023-08-24T00:09:40.028Z,19.53
2023-08-24T00:12:31.288Z,19.53
2023-08-24T00:15:22.832Z,19.52
2023-08-24T00:18:14.388Z,19.49
2023-08-24T00:21:08.733Z,19.43
2023-08-24T00:24:00.788Z,19.42
2023-08-24T00:26:52.194Z,19.43
2023-08-24T00:29:43.643Z,19.40
2023-08-24T00:32:36.715Z,19.40
2023-08-24T00:35:27.895Z,19.40
2023-08-24T00:38:20.647Z,19.40
2023-08-24T00:41:12.081Z,19.38
2023-08-24T00:44:03.760Z,19.37
2023-08-24T00:46:55.437Z,19.35
2023-08-24T00:49:46.875Z,19.35
2023-08-24T00:52:40.345Z,19.33
2023-08-24T00:55:33.150Z,19.31
2023-08-24T00:58:25.341Z,19.28
2023-08-24T01:01:16.541Z,19.26
2023-08-24T01:04:08.675Z,19.24
2023-08-24T01:06:59.863Z,19.21
2023-08-24T01:09:51.393Z,19.20
2023-08-24T01:12:50.522Z,19.16
2023-08-24T01:15:50.803Z,19.08
2023-08-24T01:18:44.052Z,19.04
2023-08-24T01:21:35.698Z,19.00
2023-08-24T01:24:31.332Z,18.92
2023-08-24T01:27:24.236Z,18.85
2023-08-24T01:30:15.815Z,18.79
2023-08-24T01:33:12.844Z,18.78
2023-08-24T01:36:04.447Z,18.80
2023-08-24T01:38:59.375Z,18.76
2023-08-24T01:41:52.150Z,18.78
2023-08-24T01:44:46.785Z,18.70
2023-08-24T01:47:38.858Z,18.70
2023-08-24T01:50:30.144Z,18.67
2023-08-24T01:53:21.818Z,18.67
2023-08-24T01:56:13.705Z,18.65
2023-08-24T01:59:05.269Z,18.62
2023-08-24T02:01:57.789Z,18.59
2023-08-24T02:04:48.812Z,18.54
2023-08-24T02:07:40.996Z,18.51
2023-08-24T02:10:32.063Z,18.48
2023-08-24T02:13:23.489Z,18.44
2023-08-24T02:16:14.927Z,18.40
2023-08-24T02:19:07.567Z,18.36
2023-08-24T02:21:58.898Z,18.33
2023-08-24T02:24:50.283Z,18.32
2023-08-24T02:27:41.720Z,18.30
2023-08-24T02:30:32.998Z,18.25
2023-08-24T02:33:24.345Z,18.21
2023-08-24T02:36:16.995Z,18.17
2023-08-24T02:39:08.779Z,18.12
2023-08-24T02:41:59.820Z,18.11
2023-08-24T02:44:51.605Z,18.10
2023-08-24T02:47:43.122Z,18.09
2023-08-24T02:50:34.605Z,18.09
2023-08-24T02:53:27.359Z,18.06
2023-08-24T02:56:18.731Z,18.04
2023-08-24T02:59:10.422Z,18.02
2023-08-24T03:02:01.940Z,18.01
2023-08-24T03:04:53.377Z,18.00
2023-08-24T03:07:44.900Z,17.97
2023-08-24T03:10:38.368Z,17.96
2023-08-24T03:13:30.070Z,17.93
2023-08-24T03:16:21.564Z,17.91
2023-08-24T03:19:13.246Z,17.87
2023-08-24T03:22:04.485Z,17.86
2023-08-24T03:24:55.965Z,17.83
2023-08-24T03:27:49.325Z,17.80
2023-08-24T03:30:41.370Z,17.76
2023-08-24T03:33:34.376Z,17.70
2023-08-24T03:36:25.475Z,17.66
2023-08-24T03:39:17.478Z,17.63
2023-08-24T03:42:08.924Z,17.55
2023-08-24T03:45:02.850Z,17.53
2023-08-24T03:47:54.265Z,17.54
2023-08-24T03:50:45.537Z,17.50
2023-08-24T03:53:36.786Z,17.51
2023-08-24T03:56:28.247Z,17.49
2023-08-24T03:59:19.681Z,17.50
2023-08-24T04:02:12.640Z,17.48
2023-08-24T04:05:03.835Z,17.45
2023-08-24T04:07:55.365Z,17.45
2023-08-24T04:10:46.804Z,17.44
2023-08-24T04:13:38.344Z,17.40
2023-08-24T04:16:29.789Z,17.40
2023-08-24T04:19:22.657Z,17.39
2023-08-24T04:22:13.871Z,17.38
2023-08-24T04:25:05.655Z,17.36
2023-08-24T04:27:56.874Z,17.35
2023-08-24T04:30:52.420Z,17.34
2023-08-24T04:33:43.780Z,17.34
2023-08-24T04:36:36.568Z,17.40
2023-08-24T04:39:27.829Z,17.45
2023-08-24T04:42:19.148Z,17.44
2023-08-24T04:45:11.074Z,17.44
2023-08-24T04:48:04.070Z,17.44
2023-08-24T04:50:57.320Z,17.44
2023-08-24T04:53:50.095Z,17.40
2023-08-24T04:56:41.476Z,17.42
2023-08-24T04:59:32.817Z,17.40
2023-08-24T05:02:24.333Z,17.42
2023-08-24T05:05:15.596Z,17.46
2023-08-24T05:08:12.799Z,17.54
2023-08-24T05:11:12.138Z,17.54
2023-08-24T05:14:03.764Z,17.61
2023-08-24T05:16:55.246Z,17.63
2023-08-24T05:19:46.553Z,17.65
2023-08-24T05:22:38.017Z,17.65
2023-08-24T05:25:29.375Z,17.65
2023-08-24T05:28:22.119Z,17.68
2023-08-24T05:31:13.371Z,17.68
2023-08-24T05:34:04.788Z,17.70
2023-08-24T05:36:56.439Z,17.70
2023-08-24T05:39:47.563Z,17.77
2023-08-24T05:42:38.893Z,17.89
2023-08-24T05:45:31.379Z,18.04
2023-08-24T05:48:22.538Z,18.17
2023-08-24T05:51:13.921Z,18.28
2023-08-24T05:54:05.353Z,18.38
2023-08-24T05:56:56.630Z,18.78
2023-08-24T05:59:48.023Z,19.40
2023-08-24T06:02:41.641Z,20.42
2023-08-24T06:05:33.187Z,20.62
2023-08-24T06:08:24.190Z,20.61
2023-08-24T06:11:15.602Z,20.20
2023-08-24T06:14:08.863Z,19.80
2023-08-24T06:16:59.971Z,19.39
2023-08-24T06:19:52.498Z,19.26
2023-08-24T06:22:44.086Z,19.23
2023-08-24T06:25:35.344Z,19.10
2023-08-24T06:28:26.473Z,19.08
2023-08-24T06:31:18.248Z,19.17
2023-08-24T06:34:09.897Z,19.24
2023-08-24T06:37:04.327Z,19.22
2023-08-24T06:39:55.472Z,19.33
2023-08-24T06:42:46.701Z,19.43
2023-08-24T06:45:37.860Z,19.32
2023-08-24T06:48:29.147Z,19.41
2023-08-24T06:51:20.666Z,19.50
2023-08-24T06:54:13.037Z,19.42
2023-08-24T06:57:04.738Z,19.60
2023-08-24T06:59:55.760Z,19.77
2023-08-24T07:02:47.225Z,19.82
2023-08-24T07:05:38.553Z,19.92
2023-08-24T07:08:29.834Z,19.75
2023-08-24T07:11:22.779Z,19.74
2023-08-24T07:14:13.964Z,19.77
2023-08-24T07:17:05.611Z,19.76
2023-08-24T07:19:57.056Z,19.98
2023-08-24T07:22:48.495Z,20.20
2023-08-24T07:25:40.051Z,20.61
2023-08-24T07:28:32.763Z,20.80
2023-08-24T07:31:24.008Z,20.66
2023-08-24T07:34:15.152Z,20.55
2023-08-24T07:37:06.472Z,20.48
2023-08-24T07:39:57.930Z,20.67
2023-08-24T07:42:51.916Z,20.61
2023-08-24T07:45:48.143Z,21.30
2023-08-24T07:48:39.272Z,21.92
2023-08-24T07:51:30.937Z,22.47
2023-08-24T07:54:22.664Z,22.40
2023-08-24T07:57:14.158Z,21.90
2023-08-24T08:00:08.592Z,21.80
2023-08-24T08:03:02.066Z,21.77
2023-08-24T08:05:53.461Z,21.62
2023-08-24T08:08:45.729Z,21.52
2023-08-24T08:11:37.009Z,21.71
2023-08-24T08:14:28.360Z,21.62
2023-08-24T08:17:19.729Z,21.44
2023-08-24T08:20:13.718Z,21.56
2023-08-24T08:23:05.655Z,21.81
2023-08-24T08:25:56.654Z,21.80
2023-08-24T08:28:48.048Z,21.91
2023-08-24T08:31:39.486Z,21.92
2023-08-24T08:34:30.746Z,21.64
2023-08-24T08:37:23.278Z,21.74
2023-08-24T08:40:14.752Z,21.65
2023-08-24T08:43:05.986Z,21.72
2023-08-24T08:45:57.719Z,22.03
2023-08-24T08:48:48.980Z,22.23
2023-08-24T08:51:40.258Z,22.34
2023-08-24T08:54:33.883Z,22.18
2023-08-24T08:57:26.950Z,22.64
2023-08-24T09:00:18.978Z,22.77
2023-08-24T09:03:10.760Z,23.00
2023-08-24T09:06:01.945Z,23.16
2023-08-24T09:08:54.528Z,23.26
2023-08-24T09:11:48.352Z,23.46
2023-08-24T09:14:40.976Z,23.75
2023-08-24T09:17:32.077Z,23.87
2023-08-24T09:20:23.691Z,23.88
2023-08-24T09:23:19.792Z,23.62
2023-08-24T09:26:11.061Z,23.33
2023-08-24T09:29:13.085Z,23.36
2023-08-24T09:32:04.499Z,23.24
2023-08-24T09:34:56.137Z,23.46
2023-08-24T09:37:47.301Z,23.66
2023-08-24T09:40:38.456Z,23.82
2023-08-24T09:43:32.248Z,23.77
2023-08-24T09:46:26.376Z,23.63
2023-08-24T09:49:17.697Z,23.74
2023-08-24T09:52:09.655Z,23.81
2023-08-24T09:55:05.287Z,23.83
2023-08-24T09:57:58.340Z,23.88
2023-08-24T10:00:50.510Z,23.98
2023-08-24T10:03:43.855Z,23.84
2023-08-24T10:06:36.944Z,23.74
2023-08-24T10:09:31.186Z,23.68
2023-08-24T10:12:25.739Z,23.59
2023-08-24T10:15:17.191Z,23.70
2023-08-24T10:18:08.808Z,23.89
2023-08-24T10:21:01.858Z,24.11
2023-08-24T10:23:54.038Z,24.04
2023-08-24T10:26:45.614Z,24.34
2023-08-24T10:29:36.699Z,24.22
2023-08-24T10:32:29.013Z,24.33
2023-08-24T10:35:21.232Z,24.27
2023-08-24T10:38:24.370Z,23.97
2023-08-24T10:41:16.262Z,24.04
2023-08-24T10:44:10.054Z,24.17
2023-08-24T10:47:14.595Z,24.31
2023-08-24T10:50:05.907Z,24.44
2023-08-24T10:52:56.921Z,24.20
2023-08-24T10:56:09.702Z,24.25
2023-08-24T10:59:15.166Z,24.44
2023-08-24T11:02:07.936Z,24.44
2023-08-24T11:05:08.628Z,24.60
2023-08-24T11:08:00.875Z,24.78
2023-08-24T11:10:55.869Z,24.87
2023-08-24T11:14:01.990Z,24.89
2023-08-24T11:16:53.003Z,24.88
2023-08-24T11:19:49.423Z,24.83
2023-08-24T11:22:40.814Z,24.77
2023-08-24T11:25:32.224Z,24.74
2023-08-24T11:28:25.108Z,24.79
2023-08-24T11:31:16.472Z,24.67
2023-08-24T11:34:08.735Z,24.72
2023-08-24T11:36:59.846Z,24.78
2023-08-24T11:39:51.226Z,24.88
2023-08-24T11:42:42.494Z,24.86
2023-08-24T11:45:35.644Z,24.86
2023-08-24T11:48:27.461Z,24.94
2023-08-24T11:51:26.231Z,25.01
2023-08-24T11:54:21.919Z,24.94
2023-08-24T11:57:13.235Z,24.98
2023-08-24T12:00:05.198Z,24.91
2023-08-24T12:02:59.401Z,24.89
2023-08-24T12:05:50.852Z,24.82
2023-08-24T12:08:43.113Z,25.03
2023-08-24T12:11:37.773Z,25.14
2023-08-24T12:14:28.891Z,24.89
2023-08-24T12:17:20.327Z,24.98
2023-08-24T12:20:19.194Z,25.03
2023-08-24T12:23:11.840Z,25.21
2023-08-24T12:26:03.383Z,25.24
2023-08-24T12:28:55.019Z,25.37
2023-08-24T12:31:46.349Z,25.33
2023-08-24T12:34:37.729Z,25.48
2023-08-24T12:37:31.099Z,25.57
2023-08-24T12:40:25.275Z,25.51
2023-08-24T12:43:16.650Z,25.71
2023-08-24T12:46:07.985Z,25.62
2023-08-24T12:48:59.352Z,25.56
2023-08-24T12:51:50.687Z,25.51
2023-08-24T12:54:43.392Z,25.49
2023-08-24T12:57:34.700Z,25.47
2023-08-24T13:00:26.212Z,25.39
2023-08-24T13:03:17.525Z,25.53
2023-08-24T13:06:21.928Z,25.57
2023-08-24T13:09:15.665Z,25.64
2023-08-24T13:12:08.702Z,25.61
2023-08-24T13:15:00.101Z,25.67
2023-08-24T13:17:51.850Z,25.66
2023-08-24T13:20:43.672Z,25.44
2023-08-24T13:23:35.371Z,25.27
2023-08-24T13:26:27.252Z,25.20
2023-08-24T13:29:20.106Z,25.24
2023-08-24T13:32:11.610Z,25.25
2023-08-24T13:35:03.186Z,25.25
2023-08-24T13:37:54.178Z,25.15
2023-08-24T13:40:47.371Z,25.09
2023-08-24T13:43:41.008Z,25.19
2023-08-24T13:46:33.849Z,25.20
2023-08-24T13:49:39.057Z,25.24
2023-08-24T13:52:31.223Z,25.32
2023-08-24T13:55:22.955Z,25.28
2023-08-24T13:58:14.065Z,25.39
2023-08-24T14:01:05.566Z,25.40
2023-08-24T14:03:58.341Z,25.36
2023-08-24T14:06:50.335Z,25.25
2023-08-24T14:09:51.391Z,25.23
2023-08-24T14:12:50.687Z,25.33
2023-08-24T14:15:41.914Z,25.35
2023-08-24T14:18:33.466Z,25.37
2023-08-24T14:21:43.082Z,25.40
2023-08-24T14:24:36.162Z,25.53
2023-08-24T14:27:27.343Z,25.42
2023-08-24T14:30:19.253Z,25.50
2023-08-24T14:33:10.692Z,25.50
2023-08-24T14:36:01.954Z,25.61
2023-08-24T14:38:54.938Z,25.66
2023-08-24T14:41:46.120Z,25.57
2023-08-24T14:44:37.682Z,25.63
2023-08-24T14:47:28.957Z,25.55
2023-08-24T14:50:20.520Z,25.67
2023-08-24T14:53:11.972Z,25.75
2023-08-24T14:56:05.208Z,25.68
2023-08-24T14:58:56.870Z,25.71
2023-08-24T15:01:48.002Z,25.67
2023-08-24T15:04:39.574Z,25.71
2023-08-24T15:07:31.068Z,25.70
2023-08-24T15:10:22.473Z,25.70
2023-08-24T15:13:15.119Z,25.67
2023-08-24T15:16:06.530Z,25.53
2023-08-24T15:18:57.908Z,25.64
2023-08-24T15:21:49.343Z,25.66
2023-08-24T15:24:40.692Z,25.63
2023-08-24T15:27:32.125Z,25.62
2023-08-24T15:30:25.010Z,25.53
2023-08-24T15:33:16.312Z,25.54
2023-08-24T15:36:07.400Z,25.57
2023-08-24T15:38:58.766Z,25.64
2023-08-24T15:41:50.181Z,25.61
2023-08-24T15:44:41.461Z,25.51
2023-08-24T15:47:34.257Z,25.52
2023-08-24T15:50:26.051Z,25.49
2023-08-24T15:53:17.596Z,25.61
2023-08-24T15:56:08.842Z,25.49
2023-08-24T15:59:00.056Z,25.45
2023-08-24T16:01:52.531Z,25.43
2023-08-24T16:04:44.976Z,25.42
2023-08-24T16:07:36.225Z,25.52
2023-08-24T16:10:27.625Z,25.53
2023-08-24T16:13:18.808Z,25.49
2023-08-24T16:16:09.937Z,25.45
2023-08-24T16:19:01.213Z,25.35
2023-08-24T16:21:54.203Z,25.26
2023-08-24T16:24:45.490Z,25.21
2023-08-24T16:27:36.818Z,25.25
2023-08-24T16:30:28.161Z,25.12
2023-08-24T16:33:20.008Z,25.17
2023-08-24T16:36:11.396Z,25.17
2023-08-24T16:39:04.253Z,25.09
2023-08-24T16:41:55.327Z,25.05
2023-08-24T16:44:47.732Z,24.96
2023-08-24T16:47:38.868Z,24.87
2023-08-24T16:50:30.254Z,24.81
2023-08-24T16:53:21.590Z,24.77
2023-08-24T16:56:15.314Z,24.76
2023-08-24T16:59:07.176Z,24.68
2023-08-24T17:01:58.546Z,24.63
2023-08-24T17:04:49.843Z,24.61
2023-08-24T17:07:41.623Z,24.56
2023-08-24T17:10:32.939Z,24.54
2023-08-24T17:13:26.524Z,24.50
2023-08-24T17:16:20.491Z,24.48
2023-08-24T17:19:11.965Z,24.49
2023-08-24T17:22:04.585Z,24.43
2023-08-24T17:24:55.685Z,24.35
2023-08-24T17:27:47.713Z,24.30
2023-08-24T17:30:48.843Z,24.26
2023-08-24T17:33:41.045Z,24.22
2023-08-24T17:36:33.324Z,24.23
2023-08-24T17:39:24.202Z,24.24
2023-08-24T17:42:15.775Z,24.15
2023-08-24T17:45:09.635Z,24.14
2023-08-24T17:48:03.023Z,24.09
2023-08-24T17:50:55.183Z,24.06
2023-08-24T17:53:46.744Z,24.03
2023-08-24T17:56:41.559Z,23.98
2023-08-24T17:59:36.586Z,23.91
2023-08-24T18:02:28.850Z,23.88
2023-08-24T18:05:21.532Z,23.83
2023-08-24T18:08:14.138Z,23.84
2023-08-24T18:11:09.419Z,23.83
2023-08-24T18:14:01.403Z,23.80
2023-08-24T18:16:52.626Z,23.81
2023-08-24T18:19:44.323Z,23.73
2023-08-24T18:22:36.824Z,23.69
2023-08-24T18:25:34.132Z,23.67
2023-08-24T18:28:25.433Z,23.60
2023-08-24T18:31:17.947Z,23.55
2023-08-24T18:34:09.246Z,23.53
2023-08-24T18:37:01.083Z,23.48
2023-08-24T18:39:53.749Z,23.42
2023-08-24T18:42:45.004Z,23.38
2023-08-24T18:45:36.352Z,23.36
2023-08-24T18:48:28.478Z,23.39
2023-08-24T18:51:20.314Z,23.43
2023-08-24T18:54:18.740Z,23.33
2023-08-24T18:57:11.380Z,23.30
2023-08-24T19:00:03.777Z,23.32
2023-08-24T19:02:55.117Z,23.29
2023-08-24T19:05:48.308Z,23.25
2023-08-24T19:08:39.560Z,23.28
2023-08-24T19:11:31.171Z,23.25
2023-08-24T19:14:23.748Z,23.36
2023-08-24T19:17:15.349Z,23.29
2023-08-24T19:20:07.522Z,23.37
2023-08-24T19:22:59.192Z,23.33
2023-08-24T19:25:54.431Z,23.22
2023-08-24T19:28:46.879Z,23.16
2023-08-24T19:31:42.893Z,23.26
2023-08-24T19:34:34.056Z,23.26
2023-08-24T19:37:25.597Z,23.18
2023-08-24T19:40:16.973Z,23.17
2023-08-24T19:43:08.444Z,23.16
2023-08-24T19:45:59.752Z,23.17
2023-08-24T19:48:53.103Z,23.24
2023-08-24T19:51:44.413Z,23.04
2023-08-24T19:54:35.557Z,23.00
2023-08-24T19:57:27.594Z,22.94
2023-08-24T20:00:19.624Z,22.91
2023-08-24T20:03:13.128Z,22.91
2023-08-24T20:06:19.284Z,22.97
2023-08-24T20:09:13.488Z,22.98
2023-08-24T20:12:05.462Z,23.00
2023-08-24T20:14:56.323Z,22.97
2023-08-24T20:17:48.665Z,22.85
2023-08-24T20:20:39.974Z,22.88
2023-08-24T20:23:32.674Z,22.89
2023-08-24T20:26:30.743Z,22.84
2023-08-24T20:29:22.716Z,22.83
2023-08-24T20:32:14.418Z,22.91
2023-08-24T20:35:05.974Z,22.77
2023-08-24T20:37:57.701Z,22.70
2023-08-24T20:40:56.935Z,22.66
2023-08-24T20:43:47.993Z,22.61
2023-08-24T20:46:39.361Z,22.58
2023-08-24T20:49:30.911Z,22.60
2023-08-24T20:52:22.956Z,22.55
2023-08-24T20:55:15.153Z,22.53
2023-08-24T20:58:08.166Z,22.55
2023-08-24T21:01:06.485Z,22.52
2023-08-24T21:03:58.405Z,22.43
2023-08-24T21:06:49.962Z,22.19
2023-08-24T21:09:41.285Z,21.49
2023-08-24T21:12:32.509Z,20.89
2023-08-24T21:15:25.071Z,20.46
2023-08-24T21:18:16.418Z,20.19
2023-08-24T21:21:07.805Z,20.11
2023-08-24T21:23:59.207Z,20.06
2023-08-24T21:26:50.527Z,20.09
2023-08-24T21:29:42.609Z,20.14
2023-08-24T21:32:35.523Z,20.12
2023-08-24T21:35:26.894Z,20.09
2023-08-24T21:38:18.099Z,20.12
2023-08-24T21:41:09.790Z,20.11
2023-08-24T21:44:00.714Z,20.12
2023-08-24T21:46:52.138Z,20.14
2023-08-24T21:49:44.785Z,20.18
2023-08-24T21:52:36.050Z,20.13
2023-08-24T21:55:29.943Z,20.19
2023-08-24T21:58:21.238Z,20.17
2023-08-24T22:01:13.172Z,20.20
2023-08-24T22:04:06.642Z,20.15
2023-08-24T22:06:59.149Z,20.06
2023-08-24T22:09:50.387Z,20.00
2023-08-24T22:12:41.731Z,19.99
2023-08-24T22:15:33.046Z,19.90
2023-08-24T22:18:24.473Z,19.82
2023-08-24T22:21:15.664Z,19.85
2023-08-24T22:24:08.392Z,19.84
2023-08-24T22:26:59.604Z,19.78
2023-08-24T22:29:51.402Z,19.76
2023-08-24T22:32:42.843Z,19.79
2023-08-24T22:35:34.102Z,19.75
2023-08-24T22:38:25.041Z,19.67
2023-08-24T22:41:17.743Z,19.63
2023-08-24T22:44:09.117Z,19.63
2023-08-24T22:47:00.293Z,19.59
2023-08-24T22:49:51.807Z,19.56
2023-08-24T22:52:43.272Z,19.55
2023-08-24T22:55:34.598Z,19.54
2023-08-24T22:58:27.309Z,19.59
2023-08-24T23:01:21.234Z,19.58
2023-08-24T23:04:12.631Z,19.53
2023-08-24T23:07:05.543Z,19.48
2023-08-24T23:09:56.820Z,19.43
2023-08-24T23:12:47.989Z,19.42
2023-08-24T23:15:40.903Z,19.44
2023-08-24T23:18:32.191Z,19.44
2023-08-24T23:21:23.710Z,19.44
2023-08-24T23:24:40.103Z,19.42
2023-08-24T23:27:25.879Z,19.38
2023-08-24T23:30:18.055Z,19.35
2023-08-24T23:33:10.323Z,19.35
2023-08-24T23:36:01.762Z,19.33
2023-08-24T23:38:52.730Z,19.32
2023-08-24T23:41:44.026Z,19.33
2023-08-24T23:44:35.302Z,19.35
2023-08-24T23:47:26.618Z,19.35
2023-08-24T23:50:19.408Z,19.38
2023-08-24T23:53:10.499Z,19.45
2023-08-24T23:56:02.194Z,19.48
2023-08-24T23:58:53.356Z,19.46
